Map

Track Data

SID SEASON NUMBER BASIN SUBBASIN NAME ISO_TIME NATURE LAT LON WMO_WIND WMO_PRES WMO_AGENCY TRACK_TYPE DIST2LAND LANDFALL IFLAG USA_AGENCY USA_ATCF_ID USA_LAT USA_LON USA_RECORD USA_STATUS USA_WIND USA_PRES USA_SSHS USA_R34_NE USA_R34_SE USA_R34_SW USA_R34_NW USA_R50_NE USA_R50_SE USA_R50_SW USA_R50_NW USA_R64_NE USA_R64_SE USA_R64_SW USA_R64_NW USA_POCI USA_ROCI USA_RMW USA_EYE TOKYO_LAT TOKYO_LON TOKYO_GRADE TOKYO_WIND TOKYO_PRES TOKYO_R50_DIR TOKYO_R50_LONG TOKYO_R50_SHORT TOKYO_R30_DIR TOKYO_R30_LONG TOKYO_R30_SHORT TOKYO_LAND CMA_LAT CMA_LON CMA_CAT CMA_WIND CMA_PRES HKO_LAT HKO_LON HKO_CAT HKO_WIND HKO_PRES NEWDELHI_LAT NEWDELHI_LON NEWDELHI_GRADE NEWDELHI_WIND NEWDELHI_PRES NEWDELHI_CI NEWDELHI_DP NEWDELHI_POCI REUNION_LAT REUNION_LON REUNION_TYPE REUNION_WIND REUNION_PRES REUNION_TNUM REUNION_CI REUNION_RMW REUNION_R34_NE REUNION_R34_SE REUNION_R34_SW REUNION_R34_NW REUNION_R50_NE REUNION_R50_SE REUNION_R50_SW REUNION_R50_NW REUNION_R64_NE REUNION_R64_SE REUNION_R64_SW REUNION_R64_NW BOM_LAT BOM_LON BOM_TYPE BOM_WIND BOM_PRES BOM_TNUM BOM_CI BOM_RMW BOM_R34_NE BOM_R34_SE BOM_R34_SW BOM_R34_NW BOM_R50_NE BOM_R50_SE BOM_R50_SW BOM_R50_NW BOM_R64_NE BOM_R64_SE BOM_R64_SW BOM_R64_NW BOM_ROCI BOM_POCI BOM_EYE BOM_POS_METHOD BOM_PRES_METHOD NADI_LAT NADI_LON NADI_CAT NADI_WIND NADI_PRES WELLINGTON_LAT WELLINGTON_LON WELLINGTON_WIND WELLINGTON_PRES DS824_LAT DS824_LON DS824_STAGE DS824_WIND DS824_PRES TD9636_LAT TD9636_LON TD9636_STAGE TD9636_WIND TD9636_PRES TD9635_LAT TD9635_LON TD9635_WIND TD9635_PRES TD9635_ROCI NEUMANN_LAT NEUMANN_LON NEUMANN_CLASS NEUMANN_WIND NEUMANN_PRES MLC_LAT MLC_LON MLC_CLASS MLC_WIND MLC_PRES USA_GUST BOM_GUST BOM_GUST_PER REUNION_GUST REUNION_GUST_PER USA_SEAHGT USA_SEARAD_NE USA_SEARAD_SE USA_SEARAD_SW USA_SEARAD_NW STORM_SPEED STORM_DIR
1942065S18165 1942 14 SP MM NOT_NAMED 1942-03-06 11:00:00 NR -17.8000 164.900 main 281 269 __________O___ -1 -17.8000 164.900 7 39 272
1942065S18165 1942 14 SP MM NOT_NAMED 1942-03-06 12:00:00 NR -17.7736 164.213 main 268 268 __________P___ -1 -17.7736 164.213 7 39 272
1942065S18165 1942 14 SP MM NOT_NAMED 1942-03-06 15:00:00 NR -17.6882 162.204 main 343 343 __________P___ -1 -17.6882 162.204 7 36 273
1942065S18165 1942 14 SP MM NOT_NAMED 1942-03-06 18:00:00 NR -17.6142 160.390 main 484 484 __________P___ -1 -17.6142 160.390 7 31 272
1942065S18165 1942 14 SP EA NOT_NAMED 1942-03-06 21:00:00 NR -17.5819 158.919 main 615 615 __________P___ -1 -17.5819 158.919 7 25 270
1942065S18165 1942 14 SP EA NOT_NAMED 1942-03-06 23:00:00 NR -17.6000 158.200 main 680 680 __________O___ -1 -17.6000 158.200 7 19 267
1942065S18165 1942 14 SP EA NOT_NAMED 1942-03-07 00:00:00 NR -17.6243 157.933 main 709 709 __________P___ -1 -17.6243 157.933 7 11 258
1942065S18165 1942 14 SP EA NOT_NAMED 1942-03-07 03:00:00 NR -17.7559 157.453 main 738 738 __________P___ -1 -17.7559 157.453 7 7 240
1942065S18165 1942 14 SP EA NOT_NAMED 1942-03-07 06:00:00 NR -17.9598 157.320 main 749 731 __________P___ -1 -17.9598 157.320 7 5 191
1942065S18165 1942 14 SP EA NOT_NAMED 1942-03-07 09:00:00 NR -18.2140 157.362 main 731 724 __________P___ -1 -18.2140 157.362 7 5 170
1942065S18165 1942 14 SP EA NOT_NAMED 1942-03-07 11:00:00 NR -18.4000 157.400 main 724 720 __________O___ -1 -18.4000 157.400 7 5 183
1942065S18165 1942 14 SP EA NOT_NAMED 1942-03-07 12:00:00 NR -18.4791 157.353 main 720 720 __________P___ -1 -18.4791 157.353 7 6 205
1942065S18165 1942 14 SP EA NOT_NAMED 1942-03-07 15:00:00 NR -18.7356 157.231 main 734 729 __________P___ -1 -18.7356 157.231 7 6 202
1942065S18165 1942 14 SP EA NOT_NAMED 1942-03-07 18:00:00 NR -19.0255 157.119 main 736 723 __________P___ -1 -19.0255 157.119 7 7 200
1942065S18165 1942 14 SP EA NOT_NAMED 1942-03-07 21:00:00 NR -19.3551 156.998 main 713 689 __________P___ -1 -19.3551 156.998 7 7 200
1942065S18165 1942 14 SP EA NOT_NAMED 1942-03-07 23:00:00 NR -19.6000 156.900 main 689 679 __________O___ -1 -19.6000 156.900 7 8 202
1942065S18165 1942 14 SP EA NOT_NAMED 1942-03-08 00:00:00 NR -19.7287 156.841 main 674 630 __________P___ -1 -19.7287 156.841 7 9 204
1942065S18165 1942 14 SP EA NOT_NAMED 1942-03-08 03:00:00 NR -20.1472 156.642 main 625 566 __________P___ -1 -20.1472 156.642 7 10 205
1942065S18165 1942 14 SP EA NOT_NAMED 1942-03-08 06:00:00 NR -20.6023 156.417 main 566 509 __________P___ -1 -20.6023 156.417 7 10 205
1942065S18165 1942 14 SP EA NOT_NAMED 1942-03-08 09:00:00 NR -21.0785 156.172 main 509 469 __________P___ -1 -21.0785 156.172 7 11 206
1942065S18165 1942 14 SP EA NOT_NAMED 1942-03-08 11:00:00 NR -21.4000 156.000 main 469 454 __________O___ -1 -21.4000 156.000 7 11 210
1942065S18165 1942 14 SP EA NOT_NAMED 1942-03-08 12:00:00 NR -21.5576 155.880 main 445 385 __________P___ -1 -21.5576 155.880 7 12 216
1942065S18165 1942 14 SP EA NOT_NAMED 1942-03-08 15:00:00 NR -22.0366 155.495 main 385 321 __________P___ -1 -22.0366 155.495 7 12 215
1942065S18165 1942 14 SP EA NOT_NAMED 1942-03-08 18:00:00 NR -22.5176 155.145 main 315 258 __________P___ -1 -22.5176 155.145 7 11 209
1942065S18165 1942 14 SP EA NOT_NAMED 1942-03-08 21:00:00 NR -22.9918 154.925 main 258 233 __________P___ -1 -22.9918 154.925 7 10 196
1942065S18165 1942 14 SP EA NOT_NAMED 1942-03-08 23:00:00 NR -23.3000 154.900 main 233 225 __________O___ -1 -23.3000 154.900 7 9 180
1942065S18165 1942 14 SP EA NOT_NAMED 1942-03-09 00:00:00 NR -23.4532 154.944 main 217 211 __________P___ -1 -23.4532 154.944 7 10 153
1942065S18165 1942 14 SP EA NOT_NAMED 1942-03-09 03:00:00 NR -23.9042 155.236 main 217 217 __________P___ -1 -23.9042 155.236 7 11 142
1942065S18165 1942 14 SP EA NOT_NAMED 1942-03-09 06:00:00 NR -24.3369 155.708 main 245 241 __________P___ -1 -24.3369 155.708 7 13 131
1942065S18165 1942 14 SP EA NOT_NAMED 1942-03-09 09:00:00 NR -24.7448 156.289 main 294 293 __________P___ -1 -24.7448 156.289 7 13 126
1942065S18165 1942 14 SP EA NOT_NAMED 1942-03-09 11:00:00 NR -25.0000 156.700 main 332 332 __________O___ -1 -25.0000 156.700 7 14 124
1942065S18165 1942 14 SP EA NOT_NAMED 1942-03-09 12:00:00 NR -25.1221 156.905 main 352 352 __________P___ -1 -25.1221 156.905 7 13 122
1942065S18165 1942 14 SP EA NOT_NAMED 1942-03-09 15:00:00 NR -25.4686 157.512 main 415 415 __________P___ -1 -25.4686 157.512 7 13 122
1942065S18165 1942 14 SP EA NOT_NAMED 1942-03-09 18:00:00 NR -25.7918 158.111 main 480 480 __________P___ -1 -25.7918 158.111 7 12 120
1942065S18165 1942 14 SP EA NOT_NAMED 1942-03-09 21:00:00 NR -26.0996 158.704 main 545 545 __________P___ -1 -26.0996 158.704 7 12 120
1942065S18165 1942 14 SP EA NOT_NAMED 1942-03-09 23:00:00 NR -26.3000 159.100 main 583 __________O___ -1 -26.3000 159.100 7 12 119

Digital Typhoon Data and Search

About IBTrACS Database

This database is a web-friendly format of International Best Track Archive for Climate Stewardship (IBTrACS), a global best track data archive curated by NOAA dating back to 1842.

Updated: 2021-10-08